WHISKEYTOWN DAM (USBR) (WHI)

Elevation: 1210' · SACRAMENTO R basin · Operator: US Bureau of Reclamation

Provisional data, subject to change.
Query executed Sunday at 1:06:25   clock

Select a sensor type for a plot of data.
Note: Reservoir Flows are daily averages.

Earlier

Date RES ELE    STORAGE    RES CHG    OUTFLOW    INFLOW    EVAP    RIV REL    PPT INC    RAIN    SPILL    DIS PWR   
 FEET   AF   AF   CFS   CFS   CFS   CFS   INCHES   INCHES   CFS   CFS  
08/01/2014 1208.86 237450 -64 2156 2152 28 174 0.00 31.05 0 1982
08/02/2014 1208.58 236560 -890 2783 2362 28 174 0.00 31.05 0 2609
08/03/2014 1208.41 236020 -540 2552 2308 28 174 0.00 31.05 0 2378
08/04/2014 1208.54 236433 413 2003 2239 28 173 0.00 31.05 0 1830
08/05/2014 1208.54 236433 0 2531 2535 4 174 0.06 31.11 0 2357
08/06/2014 1208.79 237228 795 1641 2047 5 174 0.22 31.33 0 1467
08/07/2014 1208.94 237704 476 1256 1515 19 174 0.00 31.33 0 1082
08/08/2014 1208.89 237545 -159 2416 2366 30 174 0.00 31.33 0 2242
08/09/2014 1208.70 236942 -603 2593 2317 28 174 0.00 31.33 0 2419
08/10/2014 1208.77 237164 222 2456 2596 28 174 0.00 31.33 0 2282
08/11/2014 1208.67 236846 -318 2606 2474 28 174 0.00 31.33 0 2432
08/12/2014 1208.42 236052 -794 2739 2360 21 177 0.00 31.33 0 2562
08/13/2014 1208.52 236370 318 2442 2620 18 177 0.00 31.33 0 2265
08/14/2014 1208.78 237196 826 2211 2643 16 177 0.00 31.33 0 2034
08/15/2014 1208.66 236814 -382 2401 2226 18 177 0.00 31.33 0 2224
08/16/2014 1208.78 237196 382 2478 2688 17 177 0.00 31.33 0 2301
08/17/2014 1208.78 237196 0 2384 2414 30 177 0.00 31.33 0 2207
08/18/2014 1208.61 236656 -540 2734 2495 33 177 0.00 31.33 0 2557
08/19/2014 1208.60 236624 -32 2296 2308 28 177 0.00 31.33 0 2119
08/20/2014 1208.64 236751 127 2110 2197 23 177 0.00 31.33 0 1933
08/21/2014 1208.43 236084 -667 2441 2124 19 177 0.00 31.33 0 2264
08/22/2014 1208.61 236656 572 1990 2298 20 177 0.00 31.33 0 1813
08/23/2014 1208.55 236465 -191 2293 2217 20 177 0.00 31.33 0 2116
08/24/2014 1208.53 236401 -64 1601 1601 32 177 0.00 31.33 0 1424
08/25/2014 1208.63 236719 318 1495 1683 28 177 0.00 31.33 0 1318
08/26/2014 1208.43 236084 -635 1030 729 19 177 0.00 31.33 0 853
08/27/2014 1208.40 235988 -96 710 682 20 177 0.00 31.33 0 533
08/28/2014 1208.72 237005 1017 195 723 15 177 0.00 31.33 0 18
08/29/2014 1208.87 237482 477 505 762 17 177 0.00 31.33 0 328
08/30/2014 -- -- -- -- -- -- -- -- -- -- --
08/31/2014 -- -- -- -- -- -- -- -- -- -- --

Later | Latest

Warning! This data is preliminary and subject to revision.

Download Data Now Download Data Now | Show WHI Map | Plot WHI Data | 1 Month WHI Data | Real-Time WHI Data | WHI Info